createdAt,value
2024-05-09T00:00:30.585Z,973.21
2024-05-09T00:01:24.676Z,973.21
2024-05-09T00:02:24.758Z,973.22
2024-05-09T00:03:24.659Z,973.21
2024-05-09T00:04:24.615Z,973.16
2024-05-09T00:05:24.726Z,973.18
2024-05-09T00:06:24.555Z,973.18
2024-05-09T00:07:24.539Z,973.19
2024-05-09T00:08:24.611Z,973.18
2024-05-09T00:09:24.523Z,973.16
2024-05-09T00:10:32.687Z,973.17
2024-05-09T00:11:24.594Z,973.19
2024-05-09T00:12:24.565Z,973.19
2024-05-09T00:13:24.476Z,973.19
2024-05-09T00:14:24.513Z,973.21
2024-05-09T00:15:24.457Z,973.21
2024-05-09T00:16:24.451Z,973.23
2024-05-09T00:17:24.660Z,973.19
2024-05-09T00:18:24.613Z,973.19
2024-05-09T00:19:24.471Z,973.18
2024-05-09T00:20:32.316Z,973.18
2024-05-09T00:21:24.392Z,973.17
2024-05-09T00:22:24.383Z,973.21
2024-05-09T00:23:24.439Z,973.21
2024-05-09T00:24:24.385Z,973.22
2024-05-09T00:25:24.354Z,973.20
2024-05-09T00:26:24.395Z,973.16
2024-05-09T00:27:24.325Z,973.16
2024-05-09T00:28:24.331Z,973.19
2024-05-09T00:29:24.430Z,973.19
2024-05-09T00:30:32.720Z,973.19
2024-05-09T00:31:24.290Z,973.17
2024-05-09T00:32:24.343Z,973.16
2024-05-09T00:33:24.604Z,973.21
2024-05-09T00:34:24.430Z,973.23
2024-05-09T00:35:24.391Z,973.20
2024-05-09T00:36:24.219Z,973.20
2024-05-09T00:37:24.224Z,973.22
2024-05-09T00:38:24.272Z,973.23
2024-05-09T00:39:24.193Z,973.23
2024-05-09T00:40:34.734Z,973.20
2024-05-09T00:41:24.243Z,973.20
2024-05-09T00:42:24.149Z,973.21
2024-05-09T00:43:24.143Z,973.19
2024-05-09T00:44:24.207Z,973.20
2024-05-09T00:45:24.148Z,973.21
2024-05-09T00:46:24.119Z,973.21
2024-05-09T00:47:24.365Z,973.18
2024-05-09T00:48:24.258Z,973.16
2024-05-09T00:49:24.192Z,973.13
2024-05-09T00:50:29.974Z,973.16
2024-05-09T00:51:24.115Z,973.15
2024-05-09T00:52:24.055Z,973.16
2024-05-09T00:53:24.092Z,973.11
2024-05-09T00:54:24.038Z,973.05
2024-05-09T00:55:24.028Z,973.10
2024-05-09T00:56:24.056Z,973.10
2024-05-09T00:57:24.016Z,973.06
2024-05-09T00:58:23.971Z,973.07
2024-05-09T00:59:24.139Z,973.02
2024-05-09T01:00:31.510Z,973.05
2024-05-09T01:01:23.983Z,973.08
2024-05-09T01:02:24.055Z,973.05
2024-05-09T01:03:24.442Z,973.05
2024-05-09T01:04:23.939Z,973.04
2024-05-09T01:05:23.950Z,972.99
2024-05-09T01:06:23.898Z,973.07
2024-05-09T01:07:23.913Z,973.03
2024-05-09T01:08:23.891Z,973.03
2024-05-09T01:09:23.850Z,972.99
2024-05-09T01:10:28.227Z,972.99
2024-05-09T01:11:24.008Z,973.01
2024-05-09T01:12:23.914Z,973.02
2024-05-09T01:13:23.817Z,973.04
2024-05-09T01:14:23.916Z,973.04
2024-05-09T01:15:23.791Z,973.02
2024-05-09T01:16:23.778Z,972.99
2024-05-09T01:17:23.836Z,973.00
2024-05-09T01:18:23.888Z,973.05
2024-05-09T01:19:23.927Z,973.00
2024-05-09T01:20:32.255Z,973.05
2024-05-09T01:21:23.829Z,973.03
2024-05-09T01:22:23.708Z,973.02
2024-05-09T01:23:23.727Z,973.03
2024-05-09T01:24:23.694Z,972.98
2024-05-09T01:25:23.687Z,972.98
2024-05-09T01:26:23.722Z,973.00
2024-05-09T01:27:23.672Z,972.98
2024-05-09T01:28:23.639Z,972.99
2024-05-09T01:29:23.696Z,972.96
2024-05-09T01:30:31.308Z,972.96
2024-05-09T01:31:23.626Z,972.97
2024-05-09T01:32:23.754Z,972.98
2024-05-09T01:33:23.836Z,972.98
2024-05-09T01:34:23.611Z,972.95
2024-05-09T01:35:23.877Z,972.99
2024-05-09T01:36:23.565Z,972.95
2024-05-09T01:37:23.545Z,972.99
2024-05-09T01:38:23.607Z,972.99
2024-05-09T01:39:23.532Z,973.01
2024-05-09T01:40:33.306Z,972.96
2024-05-09T01:41:23.540Z,972.99
2024-05-09T01:42:23.515Z,973.00
2024-05-09T01:43:23.493Z,972.99
2024-05-09T01:44:23.547Z,973.01
2024-05-09T01:45:23.458Z,973.01
2024-05-09T01:46:23.452Z,973.01
2024-05-09T01:47:23.610Z,973.01
2024-05-09T01:48:23.546Z,972.98
2024-05-09T01:49:23.643Z,973.03
2024-05-09T01:50:35.717Z,973.01
2024-05-09T01:51:23.463Z,973.03
2024-05-09T01:52:23.383Z,973.04
2024-05-09T01:53:23.424Z,973.04
2024-05-09T01:54:23.360Z,973.03
2024-05-09T01:55:23.347Z,973.01
2024-05-09T01:56:23.383Z,973.02
2024-05-09T01:57:23.348Z,973.00
2024-05-09T01:58:23.319Z,972.96
2024-05-09T01:59:23.378Z,972.97
2024-05-09T02:00:33.735Z,972.97
2024-05-09T02:01:23.332Z,972.97
2024-05-09T02:02:23.445Z,972.96
2024-05-09T02:03:23.516Z,972.93
2024-05-09T02:04:23.455Z,972.94
2024-05-09T02:05:23.450Z,972.93
2024-05-09T02:06:23.265Z,972.93
2024-05-09T02:07:23.215Z,972.94
2024-05-09T02:08:23.227Z,972.93
2024-05-09T02:09:23.195Z,972.98
2024-05-09T02:10:30.164Z,972.98
2024-05-09T02:11:23.256Z,972.99
2024-05-09T02:12:23.257Z,972.96
2024-05-09T02:13:23.150Z,972.99
2024-05-09T02:14:23.174Z,973.01
2024-05-09T02:15:23.129Z,972.98
2024-05-09T02:16:23.121Z,972.96
2024-05-09T02:17:23.271Z,973.01
2024-05-09T02:18:23.310Z,972.99
2024-05-09T02:19:23.229Z,972.98
2024-05-09T02:20:30.550Z,972.97
2024-05-09T02:21:23.079Z,973.00
2024-05-09T02:22:23.061Z,972.99
2024-05-09T02:23:23.083Z,972.92
2024-05-09T02:24:23.032Z,972.92
2024-05-09T02:25:23.015Z,972.91
2024-05-09T02:26:23.040Z,972.94
2024-05-09T02:27:22.993Z,972.98
2024-05-09T02:28:22.985Z,972.99
2024-05-09T02:29:23.067Z,973.00
2024-05-09T02:30:30.585Z,973.03
2024-05-09T02:31:22.965Z,973.02
2024-05-09T02:32:23.037Z,973.01
2024-05-09T02:33:23.229Z,973.09
2024-05-09T02:34:23.138Z,973.04
2024-05-09T02:35:23.068Z,973.03
2024-05-09T02:36:22.905Z,973.08
2024-05-09T02:37:22.885Z,973.10
2024-05-09T02:38:22.929Z,973.09
2024-05-09T02:39:22.865Z,973.06
2024-05-09T02:40:32.971Z,973.02
2024-05-09T02:41:22.886Z,973.04
2024-05-09T02:42:22.820Z,973.04
2024-05-09T02:43:22.815Z,973.07
2024-05-09T02:44:22.853Z,973.06
2024-05-09T02:45:22.802Z,973.08
2024-05-09T02:46:22.788Z,973.06
2024-05-09T02:47:22.978Z,973.07
2024-05-09T02:48:22.927Z,973.08
2024-05-09T02:49:22.841Z,973.05
2024-05-09T02:50:30.113Z,973.08
2024-05-09T02:51:22.765Z,973.04
2024-05-09T02:52:22.726Z,973.05
2024-05-09T02:53:22.797Z,973.03
2024-05-09T02:54:22.694Z,973.06
2024-05-09T02:55:22.675Z,973.06
2024-05-09T02:56:22.833Z,973.03
2024-05-09T02:57:22.662Z,973.02
2024-05-09T02:58:22.654Z,973.03
2024-05-09T02:59:22.883Z,973.06
2024-05-09T03:00:26.695Z,973.09
2024-05-09T03:01:22.646Z,973.10
2024-05-09T03:02:22.685Z,973.15
2024-05-09T03:03:22.945Z,973.10
2024-05-09T03:04:22.627Z,973.07
2024-05-09T03:05:22.639Z,973.09
2024-05-09T03:06:22.604Z,973.07
2024-05-09T03:07:22.547Z,973.05
2024-05-09T03:08:22.672Z,973.03
2024-05-09T03:09:22.524Z,973.04
2024-05-09T03:10:28.286Z,973.08
2024-05-09T03:11:22.715Z,973.01
2024-05-09T03:12:22.599Z,973.02
2024-05-09T03:13:22.491Z,973.04
2024-05-09T03:14:22.542Z,972.99
2024-05-09T03:15:22.488Z,973.02
2024-05-09T03:16:22.464Z,973.01
2024-05-09T03:17:22.547Z,973.00
2024-05-09T03:18:22.554Z,973.00
2024-05-09T03:19:22.561Z,972.99
2024-05-09T03:20:27.600Z,972.97
2024-05-09T03:21:22.404Z,973.00
2024-05-09T03:22:22.405Z,973.01
2024-05-09T03:23:22.449Z,973.03
2024-05-09T03:24:22.387Z,973.07
2024-05-09T03:25:22.353Z,973.08
2024-05-09T03:26:22.475Z,973.09
2024-05-09T03:27:22.333Z,973.07
2024-05-09T03:28:22.316Z,973.06
2024-05-09T03:29:22.330Z,973.04
2024-05-09T03:30:30.680Z,973.09
2024-05-09T03:31:22.289Z,973.08
2024-05-09T03:32:22.395Z,973.05
2024-05-09T03:33:22.586Z,973.08
2024-05-09T03:34:22.291Z,973.07
2024-05-09T03:35:22.492Z,973.09
2024-05-09T03:36:22.231Z,973.11
2024-05-09T03:37:22.235Z,973.10
2024-05-09T03:38:22.259Z,973.12
2024-05-09T03:39:22.199Z,973.11
2024-05-09T03:40:26.522Z,973.07
2024-05-09T03:41:22.277Z,973.11
2024-05-09T03:42:22.170Z,973.08
2024-05-09T03:43:22.154Z,973.10
2024-05-09T03:44:22.156Z,973.02
2024-05-09T03:45:22.127Z,973.01
2024-05-09T03:46:22.116Z,973.06
2024-05-09T03:47:22.324Z,973.01
2024-05-09T03:48:22.295Z,972.98
2024-05-09T03:49:22.455Z,972.97
2024-05-09T03:50:30.022Z,973.00
2024-05-09T03:51:22.090Z,973.02
2024-05-09T03:52:22.047Z,972.93
2024-05-09T03:53:22.104Z,972.97
2024-05-09T03:54:22.021Z,972.90
2024-05-09T03:55:22.014Z,972.91
2024-05-09T03:56:22.063Z,972.91
2024-05-09T03:57:21.995Z,972.90
2024-05-09T03:58:21.996Z,972.89
2024-05-09T03:59:22.065Z,972.92
2024-05-09T04:00:31.037Z,972.88
2024-05-09T04:01:21.985Z,972.88
2024-05-09T04:02:22.061Z,972.88
2024-05-09T04:03:22.225Z,972.89
2024-05-09T04:04:21.996Z,972.87
2024-05-09T04:05:21.932Z,972.89
2024-05-09T04:06:21.899Z,972.89
2024-05-09T04:07:21.898Z,972.92
2024-05-09T04:08:21.925Z,972.90
2024-05-09T04:09:21.867Z,972.92
2024-05-09T04:10:30.216Z,972.94
2024-05-09T04:11:21.870Z,972.96
2024-05-09T04:12:21.878Z,972.95
2024-05-09T04:13:21.835Z,972.92
2024-05-09T04:14:21.863Z,972.94
2024-05-09T04:15:21.798Z,972.92
2024-05-09T04:16:21.779Z,972.97
2024-05-09T04:17:21.810Z,972.95
2024-05-09T04:18:21.871Z,972.94
2024-05-09T04:19:21.931Z,972.97
2024-05-09T04:20:32.840Z,972.95
2024-05-09T04:21:21.765Z,972.98
2024-05-09T04:22:21.710Z,972.93
2024-05-09T04:23:21.731Z,972.96
2024-05-09T04:24:21.696Z,972.96
2024-05-09T04:25:21.719Z,973.00
2024-05-09T04:26:21.771Z,972.95
2024-05-09T04:27:21.668Z,972.97
2024-05-09T04:28:21.656Z,973.01
2024-05-09T04:29:21.672Z,972.94
2024-05-09T04:30:30.901Z,973.03
2024-05-09T04:31:21.628Z,973.02
2024-05-09T04:32:21.898Z,972.98
2024-05-09T04:33:21.953Z,972.98
2024-05-09T04:34:21.708Z,973.01
2024-05-09T04:35:21.644Z,973.03
2024-05-09T04:36:21.584Z,973.04
2024-05-09T04:37:21.552Z,973.07
2024-05-09T04:38:21.640Z,973.11
2024-05-09T04:39:21.533Z,973.11
2024-05-09T04:40:28.357Z,973.05
2024-05-09T04:41:21.546Z,973.09
2024-05-09T04:42:21.508Z,973.14
2024-05-09T04:43:21.489Z,973.10
2024-05-09T04:44:21.541Z,973.09
2024-05-09T04:45:21.458Z,973.13
2024-05-09T04:46:21.451Z,973.12
2024-05-09T04:47:21.675Z,973.07
2024-05-09T04:48:21.728Z,973.15
2024-05-09T04:49:21.784Z,973.13
2024-05-09T04:50:29.985Z,973.11
2024-05-09T04:51:21.406Z,973.09
2024-05-09T04:52:21.400Z,973.08
2024-05-09T04:53:21.543Z,973.06
2024-05-09T04:54:30.467Z,973.10
2024-05-09T04:55:21.557Z,973.10
2024-05-09T04:56:21.370Z,973.08
2024-05-09T04:57:21.396Z,973.08
2024-05-09T04:58:21.391Z,973.08
2024-05-09T04:59:21.379Z,973.11
2024-05-09T05:00:28.639Z,973.08
2024-05-09T05:01:21.312Z,973.10
2024-05-09T05:02:21.344Z,973.10
2024-05-09T05:03:21.602Z,973.06
2024-05-09T05:04:21.400Z,973.06
2024-05-09T05:05:21.274Z,973.04
2024-05-09T05:06:21.235Z,973.04
2024-05-09T05:07:21.212Z,973.06
2024-05-09T05:08:21.248Z,973.06
2024-05-09T05:09:21.195Z,973.03
2024-05-09T05:10:25.747Z,973.01
2024-05-09T05:11:21.270Z,973.03
2024-05-09T05:12:21.326Z,973.09
2024-05-09T05:13:22.370Z,973.09
2024-05-09T05:14:21.177Z,973.10
2024-05-09T05:15:21.151Z,973.11
2024-05-09T05:16:21.117Z,973.11
2024-05-09T05:17:21.216Z,973.08
2024-05-09T05:18:21.282Z,973.14
2024-05-09T05:19:21.146Z,973.17
2024-05-09T05:20:27.571Z,973.11
2024-05-09T05:21:21.279Z,973.08
2024-05-09T05:22:21.057Z,973.09
2024-05-09T05:23:21.176Z,973.08
2024-05-09T05:24:21.053Z,973.08
2024-05-09T05:25:21.061Z,973.08
2024-05-09T05:26:21.051Z,973.10
2024-05-09T05:27:21.004Z,973.04
2024-05-09T05:28:20.999Z,973.06
2024-05-09T05:29:21.212Z,973.04
2024-05-09T05:30:25.383Z,973.04
2024-05-09T05:31:20.987Z,973.06
2024-05-09T05:32:21.110Z,973.06
2024-05-09T05:33:21.100Z,973.06
2024-05-09T05:34:20.943Z,973.08
2024-05-09T05:35:21.019Z,973.08
2024-05-09T05:36:20.911Z,973.09
2024-05-09T05:37:20.893Z,973.08
2024-05-09T05:38:24.852Z,973.10
2024-05-09T05:39:20.867Z,973.13
2024-05-09T05:40:28.231Z,973.12
2024-05-09T05:41:20.916Z,973.08
2024-05-09T05:42:20.831Z,973.10
2024-05-09T05:43:20.853Z,973.11
2024-05-09T05:44:20.891Z,973.12
2024-05-09T05:45:20.792Z,973.13
2024-05-09T05:46:20.802Z,973.14
2024-05-09T05:47:20.882Z,973.15
2024-05-09T05:48:20.958Z,973.19
2024-05-09T05:49:20.965Z,973.18
2024-05-09T05:50:27.619Z,973.20
2024-05-09T05:51:20.846Z,973.22
2024-05-09T05:52:20.727Z,973.23
2024-05-09T05:53:20.727Z,973.26
2024-05-09T05:54:20.708Z,973.31
2024-05-09T05:55:20.691Z,973.31
2024-05-09T05:56:20.727Z,973.27
2024-05-09T05:57:20.678Z,973.27
2024-05-09T05:58:20.679Z,973.30
2024-05-09T05:59:20.665Z,973.29
2024-05-09T06:00:29.294Z,973.29
2024-05-09T06:01:20.651Z,973.32
2024-05-09T06:02:20.687Z,973.30
2024-05-09T06:03:20.665Z,973.26
2024-05-09T06:04:20.612Z,973.26
2024-05-09T06:05:20.633Z,973.31
2024-05-09T06:06:20.569Z,973.32
2024-05-09T06:07:20.563Z,973.28
2024-05-09T06:08:20.699Z,973.36
2024-05-09T06:09:20.572Z,973.32
2024-05-09T06:10:25.674Z,973.30
2024-05-09T06:11:20.564Z,973.30
2024-05-09T06:12:20.753Z,973.28
2024-05-09T06:13:20.490Z,973.31
2024-05-09T06:14:20.550Z,973.30
2024-05-09T06:15:20.473Z,973.30
2024-05-09T06:16:20.461Z,973.32
2024-05-09T06:17:20.597Z,973.31
2024-05-09T06:18:20.683Z,973.32
2024-05-09T06:19:20.661Z,973.31
2024-05-09T06:20:27.145Z,973.27
2024-05-09T06:21:20.568Z,973.28
2024-05-09T06:22:20.384Z,973.26
2024-05-09T06:23:20.387Z,973.30
2024-05-09T06:24:20.366Z,973.25
2024-05-09T06:25:20.341Z,973.22
2024-05-09T06:26:20.396Z,973.22
2024-05-09T06:27:20.330Z,973.23
2024-05-09T06:28:20.315Z,973.23
2024-05-09T06:29:20.387Z,973.23
2024-05-09T06:30:29.541Z,973.21
2024-05-09T06:31:20.283Z,973.19
2024-05-09T06:32:20.438Z,973.17
2024-05-09T06:33:20.489Z,973.16
2024-05-09T06:34:20.503Z,973.17
2024-05-09T06:35:20.272Z,973.17
2024-05-09T06:36:20.229Z,973.18
2024-05-09T06:37:20.215Z,973.17
2024-05-09T06:38:20.397Z,973.17
2024-05-09T06:39:20.193Z,973.13
2024-05-09T06:40:25.711Z,973.11
2024-05-09T06:41:20.235Z,973.09
2024-05-09T06:42:20.222Z,973.05
2024-05-09T06:43:20.295Z,973.10
2024-05-09T06:44:20.177Z,973.07
2024-05-09T06:45:20.136Z,973.07
2024-05-09T06:46:20.115Z,973.04
2024-05-09T06:47:20.198Z,973.06
2024-05-09T06:48:20.711Z,973.07
2024-05-09T06:49:20.317Z,973.06
2024-05-09T06:50:24.154Z,973.06
2024-05-09T06:51:20.103Z,973.08
2024-05-09T06:52:20.066Z,973.11
2024-05-09T06:53:20.083Z,973.10
2024-05-09T06:54:20.031Z,973.08
2024-05-09T06:55:20.015Z,973.06
2024-05-09T06:56:20.053Z,973.07
2024-05-09T06:57:19.991Z,973.06
2024-05-09T06:58:19.979Z,973.04
2024-05-09T06:59:19.997Z,973.10
2024-05-09T07:00:27.487Z,973.09
2024-05-09T07:01:19.971Z,973.06
2024-05-09T07:02:20.001Z,973.05
2024-05-09T07:03:20.174Z,973.08
2024-05-09T07:04:20.155Z,973.07
2024-05-09T07:05:19.956Z,973.05
2024-05-09T07:06:19.912Z,973.05
2024-05-09T07:07:19.918Z,973.07
2024-05-09T07:08:19.944Z,972.99
2024-05-09T07:09:19.859Z,973.03
2024-05-09T07:10:28.439Z,973.07
2024-05-09T07:11:19.916Z,973.04
2024-05-09T07:12:19.977Z,973.00
2024-05-09T07:13:19.851Z,973.03
2024-05-09T07:14:19.848Z,973.04
2024-05-09T07:15:19.819Z,973.07
2024-05-09T07:16:19.798Z,973.06
2024-05-09T07:17:19.950Z,973.08
2024-05-09T07:18:20.596Z,973.04
2024-05-09T07:19:19.999Z,973.06
2024-05-09T07:20:27.520Z,973.04
2024-05-09T07:21:19.902Z,973.04
2024-05-09T07:22:19.719Z,973.03
2024-05-09T07:23:19.869Z,972.98
2024-05-09T07:24:19.700Z,973.05
2024-05-09T07:25:19.684Z,972.98
2024-05-09T07:26:19.751Z,973.00
2024-05-09T07:27:19.674Z,973.00
2024-05-09T07:28:19.886Z,972.97
2024-05-09T07:29:19.676Z,972.98
2024-05-09T07:30:26.992Z,972.98
2024-05-09T07:31:19.661Z,972.96
2024-05-09T07:32:19.723Z,972.96
2024-05-09T07:33:21.181Z,972.96
2024-05-09T07:34:19.872Z,972.95
2024-05-09T07:35:19.757Z,972.99
2024-05-09T07:36:19.576Z,972.97
2024-05-09T07:37:19.552Z,972.93
2024-05-09T07:38:19.669Z,972.90
2024-05-09T07:39:19.545Z,972.90
2024-05-09T07:40:28.587Z,972.92
2024-05-09T07:41:19.575Z,972.91
2024-05-09T07:42:19.547Z,972.91
2024-05-09T07:43:19.537Z,972.93
2024-05-09T07:44:19.534Z,972.95
2024-05-09T07:45:39.695Z,972.90
2024-05-09T07:47:14.537Z,972.90
2024-05-09T07:50:34.265Z,972.81
2024-05-09T07:53:32.459Z,972.82
2024-05-09T07:53:49.382Z,972.73
2024-05-09T07:54:00.519Z,972.77
2024-05-09T07:54:56.003Z,972.73
2024-05-09T07:55:56.460Z,972.69
2024-05-09T07:56:56.051Z,972.73
2024-05-09T07:57:55.821Z,972.66
2024-05-09T07:58:56.320Z,972.64
2024-05-09T07:59:55.793Z,972.66
2024-05-09T08:00:55.957Z,972.69
2024-05-09T08:01:55.872Z,972.63
2024-05-09T08:02:55.780Z,972.59
2024-05-09T08:03:56.029Z,972.59
2024-05-09T08:04:55.829Z,972.60
2024-05-09T08:05:55.786Z,972.57
2024-05-09T08:06:55.801Z,972.54
2024-05-09T08:07:55.767Z,972.57
2024-05-09T08:08:56.016Z,972.54
2024-05-09T08:09:55.689Z,972.58
2024-05-09T08:10:55.765Z,972.56
2024-05-09T08:11:55.700Z,972.55
2024-05-09T08:12:55.703Z,972.56
2024-05-09T08:13:55.656Z,972.58
2024-05-09T08:14:55.636Z,972.58
2024-05-09T08:15:55.701Z,972.51
2024-05-09T08:16:55.674Z,972.49
2024-05-09T08:17:55.930Z,972.57
2024-05-09T08:18:55.665Z,972.53
2024-05-09T08:19:55.599Z,972.53
2024-05-09T08:20:55.562Z,972.50
2024-05-09T08:21:55.614Z,972.49
2024-05-09T08:22:55.539Z,972.50
2024-05-09T08:23:55.535Z,972.50
2024-05-09T08:24:55.604Z,972.52
2024-05-09T08:25:55.512Z,972.53
2024-05-09T08:26:55.500Z,972.50
2024-05-09T08:27:55.600Z,972.53
2024-05-09T08:28:55.506Z,972.48
2024-05-09T08:29:55.510Z,972.55
2024-05-09T08:30:55.609Z,972.56
2024-05-09T08:31:55.476Z,972.54
2024-05-09T08:32:55.467Z,972.53
2024-05-09T08:33:55.506Z,972.59
2024-05-09T08:34:55.501Z,972.50
2024-05-09T08:35:55.390Z,972.52
2024-05-09T08:36:57.530Z,972.53
2024-05-09T08:37:55.439Z,972.45
2024-05-09T08:38:55.365Z,972.45
2024-05-09T08:39:55.424Z,972.44
2024-05-09T08:40:55.374Z,972.48
2024-05-09T08:41:55.351Z,972.43
2024-05-09T08:42:55.332Z,972.42
2024-05-09T08:43:55.322Z,972.44
2024-05-09T08:44:55.290Z,972.43
2024-05-09T08:45:55.352Z,972.47
2024-05-09T08:46:55.275Z,972.51
2024-05-09T08:47:55.338Z,972.49
2024-05-09T08:48:55.462Z,972.42
2024-05-09T08:49:55.306Z,972.34
2024-05-09T08:50:55.261Z,972.43
2024-05-09T08:51:55.272Z,972.41
2024-05-09T08:52:55.250Z,972.34
2024-05-09T08:53:55.187Z,972.30
2024-05-09T08:54:55.280Z,972.39
2024-05-09T08:55:55.170Z,972.49
2024-05-09T08:56:55.157Z,972.37
2024-05-09T08:57:55.222Z,972.45
2024-05-09T08:58:55.137Z,972.41
2024-05-09T08:59:55.116Z,972.44
2024-05-09T09:00:55.223Z,972.37
2024-05-09T09:01:55.213Z,972.36
2024-05-09T09:02:55.137Z,972.39
2024-05-09T09:03:55.302Z,972.39
2024-05-09T09:04:55.203Z,972.35
2024-05-09T09:05:55.064Z,972.35
2024-05-09T09:06:57.707Z,972.38
2024-05-09T09:07:55.043Z,972.38
2024-05-09T09:08:55.038Z,972.38
2024-05-09T09:09:55.026Z,972.39
2024-05-09T09:10:55.053Z,972.32
2024-05-09T09:11:55.019Z,972.34
2024-05-09T09:12:55.022Z,972.30
2024-05-09T09:13:54.970Z,972.34
2024-05-09T09:14:54.961Z,972.27
2024-05-09T09:15:54.943Z,972.40
2024-05-09T09:16:54.928Z,972.36
2024-05-09T09:17:55.011Z,972.42
2024-05-09T09:18:55.175Z,972.41
2024-05-09T09:19:54.955Z,972.42
2024-05-09T09:20:54.983Z,972.36
2024-05-09T09:21:54.929Z,972.41
2024-05-09T09:22:54.873Z,972.42
2024-05-09T09:23:54.855Z,972.39
2024-05-09T09:24:54.924Z,972.42
2024-05-09T09:25:54.832Z,972.39
2024-05-09T09:26:54.823Z,972.38
2024-05-09T09:27:54.884Z,972.30
2024-05-09T09:28:54.814Z,972.29
2024-05-09T09:29:54.776Z,972.31
2024-05-09T09:30:54.786Z,972.30
2024-05-09T09:31:54.778Z,972.29
2024-05-09T09:32:54.797Z,972.30
2024-05-09T09:33:55.058Z,972.31
2024-05-09T09:34:54.837Z,972.27
2024-05-09T09:35:54.712Z,972.23
2024-05-09T09:36:54.736Z,972.25
2024-05-09T09:37:54.792Z,972.35
2024-05-09T09:38:54.689Z,972.30
2024-05-09T09:39:54.702Z,972.32
2024-05-09T09:40:54.694Z,972.31
2024-05-09T09:41:54.662Z,972.30
2024-05-09T09:42:54.686Z,972.30
2024-05-09T09:43:54.631Z,972.34
2024-05-09T09:45:02.222Z,972.35
2024-05-09T09:45:54.648Z,972.32
2024-05-09T09:46:54.609Z,972.29
2024-05-09T09:47:54.707Z,972.24
2024-05-09T09:48:54.658Z,972.22
2024-05-09T09:49:54.593Z,972.21
2024-05-09T09:50:54.546Z,972.24
2024-05-09T09:51:54.578Z,972.30
2024-05-09T09:52:54.536Z,972.33
2024-05-09T09:53:54.523Z,972.27
2024-05-09T09:54:54.535Z,972.26
2024-05-09T09:55:54.493Z,972.25
2024-05-09T09:56:54.484Z,972.19
2024-05-09T09:57:54.562Z,972.23
2024-05-09T09:58:54.482Z,972.23
2024-05-09T09:59:54.456Z,972.18
2024-05-09T10:00:54.607Z,972.21
2024-05-09T10:01:54.480Z,972.21
2024-05-09T10:02:54.467Z,972.19
2024-05-09T10:03:54.531Z,972.18
2024-05-09T10:04:54.514Z,972.11
2024-05-09T10:05:54.440Z,972.11
2024-05-09T10:06:54.440Z,972.21
2024-05-09T10:07:54.359Z,972.26
2024-05-09T10:08:54.365Z,972.22
2024-05-09T10:09:54.398Z,972.20
2024-05-09T10:10:54.723Z,972.14
2024-05-09T10:11:59.888Z,972.14
2024-05-09T10:12:54.335Z,972.06
2024-05-09T10:13:54.301Z,972.09
2024-05-09T10:14:54.289Z,972.08
2024-05-09T10:15:54.750Z,972.07
2024-05-09T10:16:54.262Z,972.03
2024-05-09T10:17:54.313Z,972.09
2024-05-09T10:18:54.513Z,972.09
2024-05-09T10:19:54.307Z,972.03
2024-05-09T10:20:54.225Z,972.08
2024-05-09T10:21:54.256Z,972.03
2024-05-09T10:22:54.215Z,972.01
2024-05-09T10:23:54.180Z,972.03
2024-05-09T10:24:54.263Z,972.02
2024-05-09T10:25:54.153Z,972.04
2024-05-09T10:26:54.170Z,971.97
2024-05-09T10:27:54.236Z,972.00
2024-05-09T10:28:54.125Z,971.98
2024-05-09T10:29:54.122Z,972.00
2024-05-09T10:30:54.131Z,971.98
2024-05-09T10:31:54.164Z,972.01
2024-05-09T10:32:54.244Z,972.04
2024-05-09T10:33:54.264Z,972.06
2024-05-09T10:34:54.064Z,972.05
2024-05-09T10:35:54.068Z,972.06
2024-05-09T10:36:54.181Z,972.01
2024-05-09T10:37:54.016Z,971.99
2024-05-09T10:38:54.087Z,971.95
2024-05-09T10:39:54.078Z,971.96
2024-05-09T10:40:54.031Z,971.94
2024-05-09T10:41:53.996Z,971.97
2024-05-09T10:42:54.020Z,971.89
2024-05-09T10:43:53.988Z,971.91
2024-05-09T10:44:53.959Z,971.92
2024-05-09T10:45:53.988Z,971.92
2024-05-09T10:46:53.967Z,971.80
2024-05-09T10:47:54.075Z,971.81
2024-05-09T10:48:54.036Z,971.85
2024-05-09T10:49:53.998Z,971.88
2024-05-09T10:50:53.878Z,971.99
2024-05-09T10:51:53.940Z,971.92
2024-05-09T10:52:53.853Z,971.92
2024-05-09T10:53:53.849Z,971.85
2024-05-09T10:54:53.875Z,971.89
2024-05-09T10:55:53.825Z,971.90
2024-05-09T10:56:53.807Z,971.96
2024-05-09T10:57:53.890Z,971.94
2024-05-09T10:58:53.801Z,971.93
2024-05-09T10:59:53.781Z,971.94
2024-05-09T11:00:53.840Z,971.88
2024-05-09T11:01:53.830Z,971.86
2024-05-09T11:02:53.855Z,971.84
2024-05-09T11:03:53.934Z,971.92
2024-05-09T11:04:54.078Z,971.92
2024-05-09T11:05:53.850Z,971.87
2024-05-09T11:06:53.855Z,971.95
2024-05-09T11:07:53.784Z,971.89
2024-05-09T11:08:53.663Z,971.85
2024-05-09T11:09:53.724Z,971.78
2024-05-09T11:10:53.743Z,971.80
2024-05-09T11:11:53.683Z,971.80
2024-05-09T11:12:53.684Z,971.80
2024-05-09T11:13:53.614Z,971.86
2024-05-09T11:14:53.621Z,971.92
2024-05-09T11:15:53.661Z,971.98
2024-05-09T11:16:53.587Z,971.95
2024-05-09T11:17:53.679Z,971.92
2024-05-09T11:18:53.697Z,971.91
2024-05-09T11:19:53.559Z,971.93
2024-05-09T11:20:53.582Z,971.93
2024-05-09T11:21:53.586Z,971.88
2024-05-09T11:22:53.524Z,971.92
2024-05-09T11:23:53.503Z,971.88
2024-05-09T11:24:53.539Z,971.87
2024-05-09T11:25:53.481Z,971.86
2024-05-09T11:26:53.472Z,971.84
2024-05-09T11:27:53.560Z,971.80
2024-05-09T11:28:53.456Z,971.77
2024-05-09T11:29:53.456Z,971.72
2024-05-09T11:30:53.480Z,971.73
2024-05-09T11:31:53.440Z,971.72
2024-05-09T11:32:53.490Z,971.70
2024-05-09T11:33:53.521Z,971.76
2024-05-09T11:34:53.365Z,971.75
2024-05-09T11:35:53.367Z,971.77
2024-05-09T11:36:53.425Z,971.79
2024-05-09T11:37:53.327Z,971.78
2024-05-09T11:38:53.327Z,971.78
2024-05-09T11:39:53.454Z,971.77
2024-05-09T11:40:53.510Z,971.78
2024-05-09T11:41:53.289Z,971.71
2024-05-09T11:42:53.673Z,971.70
2024-05-09T11:43:53.270Z,971.67
2024-05-09T11:44:53.277Z,971.69
2024-05-09T11:45:53.279Z,971.67
2024-05-09T11:46:53.241Z,971.62
2024-05-09T11:47:53.490Z,971.63
2024-05-09T11:48:53.481Z,971.62
2024-05-09T11:49:53.251Z,971.53
2024-05-09T11:50:53.267Z,971.55
2024-05-09T11:51:53.367Z,971.53
2024-05-09T11:52:53.174Z,971.48
2024-05-09T11:53:53.163Z,971.55
2024-05-09T11:54:53.208Z,971.50
2024-05-09T11:55:53.151Z,971.58
2024-05-09T11:56:53.173Z,971.46
2024-05-09T11:57:53.349Z,971.49
2024-05-09T11:58:53.108Z,971.39
2024-05-09T11:59:53.103Z,971.40
2024-05-09T12:00:53.289Z,971.40
2024-05-09T12:01:53.314Z,971.42
2024-05-09T12:02:53.096Z,971.34
2024-05-09T12:03:53.249Z,971.35
2024-05-09T12:04:53.148Z,971.31
2024-05-09T12:05:53.113Z,971.28
2024-05-09T12:06:53.073Z,971.30
2024-05-09T12:07:53.017Z,971.24
2024-05-09T12:08:53.016Z,971.17
2024-05-09T12:09:53.036Z,971.24
2024-05-09T12:10:53.579Z,971.25
2024-05-09T12:11:53.078Z,971.22
2024-05-09T12:12:52.966Z,971.26
2024-05-09T12:13:52.938Z,971.30
2024-05-09T12:14:52.923Z,971.28
2024-05-09T12:15:52.979Z,971.23
2024-05-09T12:16:52.963Z,971.24
2024-05-09T12:17:53.000Z,971.26
2024-05-09T12:18:53.021Z,971.28
2024-05-09T12:19:52.872Z,971.22
2024-05-09T12:20:52.858Z,971.20
2024-05-09T12:21:52.895Z,971.19
2024-05-09T12:22:52.854Z,971.24
2024-05-09T12:23:52.836Z,971.17
2024-05-09T12:24:52.879Z,971.11
2024-05-09T12:25:52.805Z,971.14
2024-05-09T12:26:52.791Z,971.22
2024-05-09T12:27:52.827Z,971.21
2024-05-09T12:28:52.770Z,971.14
2024-05-09T12:29:52.755Z,971.12
2024-05-09T12:30:52.784Z,971.14
2024-05-09T12:31:52.770Z,971.11